Time;durP1;ratioP1;P1;durP2;ratioP2;P2;SDS_P1;SDS_P2;PMS_P1;PMS_P2;Temp;Humidity;BMP_temperature;BMP_pressure;BME280_temperature;BME280_humidity;BME280_pressure;Samples;Min_cycle;Max_cycle;Signal;HPM_P1;HPM_P2
2022/11/08 00:02:03;;;;;;;18.30;16.50;;;;;;;20.42;44.92;95509.03;5969461;29;103823;-68
2022/11/08 00:15:10;;;;;;;18.60;16.80;;;;;;;20.41;45.32;95502.13;5959820;29;104149;-68
2022/11/08 00:18:13;;;;;;;17.60;16.10;;;;;;;20.40;44.75;95493.38;5969468;29;104437;-69
2022/11/08 00:21:17;;;;;;;18.87;17.20;;;;;;;20.42;44.90;95498.41;5975656;29;103666;-68
2022/11/08 00:24:20;;;;;;;18.87;17.17;;;;;;;20.41;44.84;95489.63;5966247;29;103955;-68
2022/11/08 00:27:25;;;;;;;18.43;16.93;;;;;;;20.38;44.80;95492.88;5964160;29;103738;-68
2022/11/08 00:30:28;;;;;;;19.83;18.23;;;;;;;20.38;44.81;95484.88;5975084;29;103822;-68
2022/11/08 00:33:31;;;;;;;19.47;17.83;;;;;;;20.38;44.83;95487.56;5979597;29;103691;-69
2022/11/08 00:36:34;;;;;;;17.93;16.33;;;;;;;20.37;44.74;95485.19;5960941;29;103790;-68
2022/11/08 00:39:37;;;;;;;18.83;17.07;;;;;;;20.37;45.01;95485.19;5971957;29;103853;-69
2022/11/08 00:42:42;;;;;;;18.80;17.10;;;;;;;20.38;44.98;95482.22;5984434;29;103912;-68
2022/11/08 00:45:45;;;;;;;18.30;16.53;;;;;;;20.37;44.99;95485.19;5970306;29;103971;-69
2022/11/08 00:48:48;;;;;;;17.87;16.37;;;;;;;20.37;44.57;95485.19;5959994;29;103915;-68
2022/11/08 00:51:51;;;;;;;18.00;16.30;;;;;;;20.37;45.11;95482.53;5975411;29;103784;-69
2022/11/08 00:54:54;;;;;;;17.70;15.97;;;;;;;20.37;45.01;95482.53;5973261;29;106283;-68
2022/11/08 00:57:58;;;;;;;18.77;17.13;;;;;;;20.36;45.01;95484.38;5969171;29;103790;-68
2022/11/08 01:01:09;;;;;;;18.57;16.87;;;;;;;20.36;44.84;95483.59;5974861;29;104658;-69
2022/11/08 01:04:15;;;;;;;18.57;16.77;;;;;;;20.38;44.91;95489.41;5971182;29;103912;-68
2022/11/08 01:07:18;;;;;;;17.00;15.60;;;;;;;20.37;44.79;95485.97;5991795;29;103772;-69
2022/11/08 01:10:21;;;;;;;18.13;16.50;;;;;;;20.37;44.79;95487.84;5971838;29;105977;-69
2022/11/08 01:13:25;;;;;;;18.67;17.00;;;;;;;20.38;45.02;95490.22;5992675;29;104052;-69
2022/11/08 01:16:31;;;;;;;19.27;17.47;;;;;;;20.36;45.03;95483.59;5981536;29;104103;-69
2022/11/08 01:19:34;;;;;;;17.40;15.87;;;;;;;20.34;45.03;95488.41;5971056;29;104114;-69
2022/11/08 01:22:37;;;;;;;17.57;16.00;;;;;;;20.36;44.94;95486.25;5964678;29;104092;-69
2022/11/08 01:25:41;;;;;;;19.13;17.33;;;;;;;20.34;44.95;95480.44;5993346;29;106413;-69
2022/11/08 01:28:46;;;;;;;19.43;17.70;;;;;;;20.32;44.92;95486.00;5972345;29;103906;-69
2022/11/08 01:31:49;;;;;;;19.10;17.30;;;;;;;20.31;44.98;95490.53;5970466;29;104550;-69
2022/11/08 01:34:52;;;;;;;19.30;17.43;;;;;;;20.34;44.69;95481.22;5946053;29;103769;-69
2022/11/08 01:37:55;;;;;;;18.73;17.13;;;;;;;20.31;45.10;95477.25;5982067;29;104131;-69
2022/11/08 01:40:58;;;;;;;17.00;15.43;;;;;;;20.32;45.03;95478.81;5972495;29;104647;-69
2022/11/08 01:44:03;;;;;;;17.77;16.27;;;;;;;20.32;44.89;95478.03;5979635;29;103790;-69
2022/11/08 01:47:06;;;;;;;17.80;16.10;;;;;;;20.34;44.77;95485.75;5954964;29;103538;-69
2022/11/08 01:50:12;;;;;;;18.37;16.77;;;;;;;20.32;45.02;95476.16;5963393;29;106258;-69
2022/11/08 01:53:16;;;;;;;18.60;16.97;;;;;;;20.32;45.12;95486.78;5971964;29;103956;-69
2022/11/08 01:56:21;;;;;;;19.10;17.40;;;;;;;20.30;44.87;95478.31;5969406;29;103910;-69
2022/11/08 01:59:26;;;;;;;18.70;17.00;;;;;;;20.30;44.51;95475.66;5975945;29;103750;-70
2022/11/08 02:02:29;;;;;;;19.73;18.03;;;;;;;20.28;44.88;95480.47;5991490;29;103964;-70
2022/11/08 02:05:34;;;;;;;17.07;15.57;;;;;;;20.28;44.84;95475.16;5976707;29;103741;-69
2022/11/08 02:08:39;;;;;;;19.70;17.87;;;;;;;20.28;44.78;95477.03;5974157;29;103869;-69
2022/11/08 02:11:43;;;;;;;20.00;18.20;;;;;;;20.28;45.05;95480.47;5977045;29;103933;-69
2022/11/08 02:14:47;;;;;;;18.27;16.60;;;;;;;20.28;44.84;95496.41;5976932;29;103877;-69
2022/11/08 02:17:51;;;;;;;19.37;17.67;;;;;;;20.30;44.88;95490.81;5978378;29;104195;-69
2022/11/08 02:21:00;;;;;;;19.20;17.50;;;;;;;20.26;44.78;95490.59;5971811;29;105244;-69
2022/11/08 02:24:09;;;;;;;20.57;18.77;;;;;;;20.26;45.09;95487.16;5981340;29;104044;-69
2022/11/08 02:27:14;;;;;;;20.20;18.30;;;;;;;20.28;44.83;95487.66;5983296;29;103717;-69
2022/11/08 02:30:17;;;;;;;18.90;17.10;;;;;;;20.26;44.87;95485.28;5971647;29;103791;-69
2022/11/08 02:33:22;;;;;;;19.13;17.43;;;;;;;20.27;44.82;95484.19;5977110;29;103808;-69
2022/11/08 02:36:25;;;;;;;18.47;16.83;;;;;;;20.26;45.06;95493.25;5976779;29;103729;-69
2022/11/08 02:39:31;;;;;;;19.53;17.80;;;;;;;20.28;44.90;95491.09;5976601;29;104376;-70
2022/11/08 02:42:37;;;;;;;20.13;18.30;;;;;;;20.29;44.73;95497.22;5966512;29;104171;-69
2022/11/08 02:45:40;;;;;;;18.87;17.10;;;;;;;20.28;44.80;95495.63;5985150;29;103992;-69
2022/11/08 02:48:43;;;;;;;19.07;17.37;;;;;;;20.28;44.70;95498.28;5983588;29;103536;-69
2022/11/08 02:51:46;;;;;;;19.70;17.73;;;;;;;20.28;44.56;95493.75;5975613;29;103885;-70
2022/11/08 02:54:51;;;;;;;18.17;16.57;;;;;;;20.27;44.53;95486.06;5971743;29;103868;-69
2022/11/08 02:57:54;;;;;;;19.30;17.70;;;;;;;20.27;44.95;95489.53;5987895;29;103634;-69
2022/11/08 03:00:57;;;;;;;19.63;17.77;;;;;;;20.26;44.74;95493.25;5985771;29;103919;-71
2022/11/08 03:04:00;;;;;;;20.57;18.67;;;;;;;20.25;44.54;95483.69;5966449;29;103874;-72
2022/11/08 03:07:03;;;;;;;20.73;18.80;;;;;;;20.26;44.38;95487.94;5974608;29;103852;-71
2022/11/08 03:10:08;;;;;;;19.83;18.13;;;;;;;20.24;44.64;95490.09;5977504;29;103922;-72
2022/11/08 03:13:11;;;;;;;19.97;18.17;;;;;;;20.25;44.69;95490.88;5973423;29;105455;-72
2022/11/08 03:16:14;;;;;;;19.97;17.97;;;;;;;20.26;44.74;95484.50;5966730;29;103986;-70
2022/11/08 03:19:17;;;;;;;20.20;18.30;;;;;;;20.24;44.86;95498.06;5971445;29;103507;-71
2022/11/08 03:22:20;;;;;;;18.50;16.90;;;;;;;20.26;44.74;95492.47;5972341;29;103767;-65
2022/11/08 03:25:25;;;;;;;20.70;18.67;;;;;;;20.28;44.75;95496.41;5971309;29;103646;-65
2022/11/08 03:28:29;;;;;;;20.80;18.80;;;;;;;20.23;44.77;95499.09;5960380;29;105143;-63
2022/11/08 03:31:32;;;;;;;20.63;18.73;;;;;;;20.23;44.83;95499.09;5977467;29;103921;-66
2022/11/08 03:34:35;;;;;;;20.07;18.17;;;;;;;20.24;44.77;95491.94;5994138;29;103960;-64
2022/11/08 03:37:38;;;;;;;20.33;18.43;;;;;;;20.25;44.52;95498.84;5983759;29;103826;-66
2022/11/08 03:40:42;;;;;;;19.37;17.77;;;;;;;20.23;44.94;95496.44;5970948;29;104170;-64
2022/11/08 03:43:45;;;;;;;20.50;18.70;;;;;;;20.24;44.63;95506.03;5987896;29;103858;-65
2022/11/08 03:46:48;;;;;;;20.40;18.60;;;;;;;20.24;44.82;95499.91;5994719;29;103922;-64
2022/11/08 03:49:51;;;;;;;18.87;17.07;;;;;;;20.25;44.32;95498.84;5965738;29;104310;-64
2022/11/08 03:52:56;;;;;;;19.63;17.80;;;;;;;20.24;44.61;95500.72;5992128;29;104157;-64
2022/11/08 03:56:00;;;;;;;19.33;17.63;;;;;;;20.21;44.73;95506.56;5984701;29;103722;-64
2022/11/08 03:59:03;;;;;;;20.27;18.20;;;;;;;20.21;44.98;95503.91;5978177;29;104676;-65
2022/11/08 04:02:06;;;;;;;19.20;17.40;;;;;;;20.22;44.80;95504.72;5963483;29;104324;-64
2022/11/08 04:05:12;;;;;;;19.37;17.67;;;;;;;20.23;44.69;95504.41;5970399;29;104089;-64
2022/11/08 04:08:15;;;;;;;17.80;16.30;;;;;;;20.26;44.43;95503.88;5977195;29;104917;-65
2022/11/08 04:21:23;;;;;;;22.60;20.53;;;;;;;20.00;44.80;95505.19;5967896;29;103763;-69
2022/11/08 04:24:26;;;;;;;22.47;20.30;;;;;;;19.99;44.76;95500.94;5985012;29;103883;-69
2022/11/08 04:27:30;;;;;;;23.77;21.50;;;;;;;20.00;44.83;95498.03;5979278;29;106093;-69
2022/11/08 04:30:33;;;;;;;24.47;21.90;;;;;;;20.02;44.80;95497.75;5980694;29;103694;-64
2022/11/08 04:33:37;;;;;;;22.50;20.30;;;;;;;20.13;44.38;95485.91;5948644;29;103819;-65
2022/11/08 04:36:40;;;;;;;24.37;22.13;;;;;;;20.17;44.72;95491.47;5949901;29;103688;-63
2022/11/08 04:39:43;;;;;;;22.13;19.90;;;;;;;20.20;44.67;95489.03;5971119;29;103522;-63
2022/11/08 04:42:48;;;;;;;24.10;21.90;;;;;;;20.18;44.63;95488.53;5971804;29;103752;-64
2022/11/08 04:45:51;;;;;;;23.63;21.33;;;;;;;20.19;44.60;95495.44;5958746;29;103752;-65
2022/11/08 04:48:56;;;;;;;24.33;22.03;;;;;;;20.16;46.46;95495.97;5976299;29;103779;-66
2022/11/08 04:51:59;;;;;;;26.37;23.70;;;;;;;20.16;45.46;95501.28;5980025;29;103745;-66
2022/11/08 04:55:02;;;;;;;42.20;38.30;;;;;;;20.16;45.58;95488.00;5969756;29;106682;-66
2022/11/08 04:58:06;;;;;;;33.30;30.17;;;;;;;20.17;45.66;95505.56;5957404;29;104834;-64
2022/11/08 05:01:11;;;;;;;28.23;25.50;;;;;;;20.19;45.79;95505.28;5967368;29;104208;-69
2022/11/08 05:04:14;;;;;;;27.33;24.93;;;;;;;20.18;45.79;95507.13;5964401;29;104041;-67
2022/11/08 05:07:19;;;;;;;26.97;24.23;;;;;;;20.22;45.12;95507.38;5973394;29;104055;-68
2022/11/08 05:10:22;;;;;;;30.63;24.30;;;;;;;20.31;45.85;95513.66;5977690;29;103750;-66
2022/11/08 05:13:26;;;;;;;26.17;23.53;;;;;;;20.35;46.47;95519.22;5970205;29;103879;-67
2022/11/08 05:16:31;;;;;;;27.70;25.10;;;;;;;20.39;46.47;95512.25;5968653;29;103750;-67
2022/11/08 05:26:21;;;;;;;25.17;22.63;;;;;;;20.36;46.15;95518.16;5969825;29;103983;-69
2022/11/08 05:29:25;;;;;;;24.97;22.57;;;;;;;20.34;45.89;95514.97;5970204;29;104764;-69
2022/11/08 05:32:28;;;;;;;24.53;22.03;;;;;;;20.30;46.20;95509.41;5961437;29;104758;-69
2022/11/08 05:35:33;;;;;;;23.37;21.27;;;;;;;20.26;46.28;95509.19;5970300;29;107105;-69
2022/11/08 05:38:37;;;;;;;23.13;20.93;;;;;;;20.25;45.91;95520.09;5970690;29;103726;-69
2022/11/08 05:41:40;;;;;;;22.60;20.60;;;;;;;20.22;46.42;95524.09;5970068;29;103906;-69
2022/11/08 05:44:44;;;;;;;22.53;20.53;;;;;;;20.22;46.36;95518.00;5960938;29;104538;-70
2022/11/08 05:47:48;;;;;;;22.10;20.10;;;;;;;20.23;45.85;95517.72;5969831;29;103595;-70
2022/11/08 05:50:52;;;;;;;22.77;20.67;;;;;;;20.23;45.84;95523.03;5970653;29;104297;-69
2022/11/08 05:53:55;;;;;;;23.50;21.20;;;;;;;20.21;46.22;95524.38;5965436;29;103807;-69
2022/11/08 05:56:58;;;;;;;21.70;19.80;;;;;;;20.22;46.23;95518.00;5965769;29;103780;-69
2022/11/08 06:00:03;;;;;;;20.97;19.17;;;;;;;20.22;46.00;95515.34;5970554;29;103878;-69
2022/11/08 06:03:07;;;;;;;20.83;18.93;;;;;;;20.19;46.01;95527.31;5969462;29;103691;-70
2022/11/08 06:06:12;;;;;;;22.20;20.30;;;;;;;20.19;45.93;95543.25;5958678;29;104886;-70
2022/11/08 06:09:15;;;;;;;23.07;21.00;;;;;;;20.22;45.92;95536.59;5969151;29;103786;-69
2022/11/08 06:12:18;;;;;;;21.07;19.17;;;;;;;20.19;45.95;95535.28;5969581;29;103998;-70
2022/11/08 06:15:22;;;;;;;21.33;19.23;;;;;;;20.20;45.92;95544.84;5969386;29;103883;-70
2022/11/08 06:18:25;;;;;;;21.77;19.80;;;;;;;20.18;46.17;95547.00;5959780;29;106151;-70
2022/11/08 06:21:28;;;;;;;20.13;18.43;;;;;;;20.18;45.83;95552.31;5969356;29;103426;-70
2022/11/08 06:24:31;;;;;;;20.77;18.87;;;;;;;20.19;45.87;95547.78;5969091;29;103795;-69
2022/11/08 06:27:35;;;;;;;18.87;17.17;;;;;;;20.23;45.77;95549.59;5966280;29;103671;-70
2022/11/08 06:30:39;;;;;;;21.30;19.30;;;;;;;20.21;45.91;95554.41;5963205;29;103872;-69
2022/11/08 06:33:42;;;;;;;20.40;18.60;;;;;;;20.19;45.64;95559.22;5969233;29;103896;-70
2022/11/08 06:36:45;;;;;;;20.03;18.23;;;;;;;20.21;45.79;95566.91;5968682;29;103746;-69
2022/11/08 06:39:48;;;;;;;19.20;17.50;;;;;;;20.22;45.57;95573.78;5959020;29;103879;-69
2022/11/08 06:42:52;;;;;;;20.10;18.20;;;;;;;20.23;45.52;95575.38;5972898;29;106999;-69
2022/11/08 06:46:00;;;;;;;20.90;19.10;;;;;;;20.21;45.66;95582.84;5973042;29;104708;-69
2022/11/08 06:49:03;;;;;;;20.30;18.60;;;;;;;20.21;45.51;95588.94;5973683;29;104326;-69
2022/11/08 06:52:06;;;;;;;19.13;17.40;;;;;;;20.21;45.75;95588.16;5962948;29;104163;-70
2022/11/08 06:55:09;;;;;;;18.63;17.03;;;;;;;20.19;45.71;95588.44;5972487;29;104266;-70
2022/11/08 06:58:12;;;;;;;19.17;17.37;;;;;;;20.21;45.66;95593.47;5973811;29;106352;-70
2022/11/08 07:01:17;;;;;;;19.20;17.50;;;;;;;20.18;45.74;95591.38;5972774;29;106001;-70
2022/11/08 07:04:21;;;;;;;18.50;16.90;;;;;;;20.18;45.73;95588.72;5962804;29;103715;-69
2022/11/08 07:07:24;;;;;;;18.43;16.80;;;;;;;20.19;45.84;95585.00;5971903;29;103646;-69
2022/11/08 07:10:29;;;;;;;18.47;16.77;;;;;;;20.21;45.46;95588.16;5972940;29;104049;-70
2022/11/08 07:13:32;;;;;;;18.53;16.97;;;;;;;20.19;45.67;95585.78;5968798;29;103608;-70
2022/11/08 07:16:37;;;;;;;19.73;17.97;;;;;;;20.20;45.35;95582.06;5967670;29;104715;-70
2022/11/08 07:19:40;;;;;;;18.57;16.97;;;;;;;20.20;45.58;95575.94;5972634;29;103902;-70
2022/11/08 07:22:43;;;;;;;18.27;16.70;;;;;;;20.21;45.34;95582.84;5972640;29;103667;-69
2022/11/08 07:25:46;;;;;;;18.60;17.00;;;;;;;20.21;45.57;95591.59;5963268;29;104061;-70
2022/11/08 07:28:49;;;;;;;17.83;16.23;;;;;;;20.20;45.77;95592.69;5973390;29;103924;-70
2022/11/08 07:31:53;;;;;;;17.50;15.90;;;;;;;20.20;45.39;95587.38;5972384;29;104440;-69
2022/11/08 07:34:56;;;;;;;18.40;16.70;;;;;;;20.22;45.51;95593.19;5972745;29;104032;-70
2022/11/08 07:37:59;;;;;;;17.60;16.10;;;;;;;20.22;45.38;95589.75;5960973;29;103905;-70
2022/11/08 07:41:02;;;;;;;17.63;16.20;;;;;;;20.22;45.38;95584.44;5972407;29;104341;-69
2022/11/08 07:44:06;;;;;;;18.63;17.10;;;;;;;20.21;45.45;95594.25;5972656;29;103718;-70
2022/11/08 07:47:10;;;;;;;19.03;17.33;;;;;;;20.21;45.34;95577.53;5967190;29;103776;-70
2022/11/08 07:50:13;;;;;;;17.80;16.20;;;;;;;20.20;45.29;95587.38;5966500;29;103834;-70
2022/11/08 07:53:19;;;;;;;17.70;16.10;;;;;;;20.22;45.42;95590.53;5970987;29;103764;-69
2022/11/08 07:56:23;;;;;;;17.37;15.87;;;;;;;20.23;45.15;95586.81;5972365;29;103653;-70
2022/11/08 07:59:26;;;;;;;16.87;15.47;;;;;;;20.21;45.64;95578.31;5962471;29;103839;-69
2022/11/08 08:02:30;;;;;;;17.60;16.07;;;;;;;20.23;45.36;95580.69;5971555;29;103893;-69
2022/11/08 08:05:35;;;;;;;16.60;15.20;;;;;;;20.22;45.49;95587.88;5972132;29;103801;-69
2022/11/08 08:08:38;;;;;;;16.97;15.57;;;;;;;20.23;45.41;95588.66;5970833;29;103883;-69
2022/11/08 08:11:41;;;;;;;18.83;17.23;;;;;;;20.23;45.37;95583.34;5962723;29;103700;-70
2022/11/08 08:14:44;;;;;;;16.17;14.87;;;;;;;20.25;45.38;95589.19;5971038;29;104173;-69
2022/11/08 08:17:49;;;;;;;17.50;15.90;;;;;;;20.22;45.24;95585.22;5968437;29;104828;-70
2022/11/08 08:20:52;;;;;;;15.90;14.60;;;;;;;20.24;45.13;95583.09;5967607;29;103898;-70
2022/11/08 08:23:55;;;;;;;16.77;15.27;;;;;;;20.24;45.39;95588.41;5959176;29;103751;-70
2022/11/08 08:26:58;;;;;;;16.20;14.80;;;;;;;20.24;45.21;95585.75;5967942;29;103930;-69
2022/11/08 08:30:01;;;;;;;16.90;15.30;;;;;;;20.25;45.16;95589.19;5968273;29;104429;-70
2022/11/08 08:33:08;;;;;;;16.67;15.07;;;;;;;20.24;45.20;95587.59;5958640;29;103894;-69
2022/11/08 08:36:31;;;;;;;15.27;13.97;;;;;;;20.24;45.21;95598.22;5968145;29;103789;-69
2022/11/08 08:39:34;;;;;;;16.03;14.73;;;;;;;20.25;45.45;95589.19;5967157;29;103704;-70
2022/11/08 08:42:37;;;;;;;15.97;14.67;;;;;;;20.23;45.13;95591.31;5967959;29;103735;-69
2022/11/08 08:45:40;;;;;;;15.57;14.33;;;;;;;20.23;45.34;95593.97;5958112;29;105260;-69
2022/11/08 08:48:45;;;;;;;17.03;15.50;;;;;;;20.25;45.27;95599.84;5967702;29;103939;-70
2022/11/08 08:51:48;;;;;;;16.00;14.60;;;;;;;20.23;45.32;95602.75;5967715;29;103687;-69
2022/11/08 08:54:51;;;;;;;15.90;14.60;;;;;;;20.25;45.13;95607.81;5968007;29;106344;-70
2022/11/08 08:57:55;;;;;;;15.57;14.17;;;;;;;20.25;45.21;95602.50;5957071;29;104202;-68
2022/11/08 09:01:01;;;;;;;16.00;14.70;;;;;;;20.23;45.27;95597.44;5967306;29;104560;-69
2022/11/08 09:04:26;;;;;;;16.50;15.10;;;;;;;20.24;45.22;95601.69;5966293;29;103493;-69
2022/11/08 09:07:29;;;;;;;15.83;14.43;;;;;;;20.25;45.01;95599.84;5956532;29;103713;-69
2022/11/08 09:10:32;;;;;;;15.17;13.90;;;;;;;20.24;45.06;95603.53;5966603;29;103661;-69
2022/11/08 09:13:35;;;;;;;16.00;14.77;;;;;;;20.23;45.09;95605.41;5967167;29;104116;-68
2022/11/08 09:16:38;;;;;;;15.67;14.30;;;;;;;20.25;45.13;95611.25;5966976;29;103738;-69
2022/11/08 09:19:43;;;;;;;15.57;14.27;;;;;;;20.25;45.22;95602.50;5956679;29;103890;-69
2022/11/08 09:22:46;;;;;;;14.90;13.70;;;;;;;20.24;45.08;95599.03;5966581;29;103913;-69
2022/11/08 09:25:49;;;;;;;15.00;13.80;;;;;;;20.23;45.22;95599.28;5967124;29;103784;-69
2022/11/08 09:28:52;;;;;;;14.40;13.30;;;;;;;20.24;45.10;95604.34;5967393;29;105587;-69
2022/11/08 09:31:56;;;;;;;15.03;13.63;;;;;;;20.23;44.88;95602.75;5957602;29;104964;-69
2022/11/08 09:35:00;;;;;;;15.10;13.80;;;;;;;20.25;45.18;95589.19;5967182;29;104309;-69
2022/11/08 09:38:08;;;;;;;14.70;13.40;;;;;;;20.26;45.20;95604.88;5966768;29;103508;-69
2022/11/08 09:41:34;;;;;;;15.70;14.30;;;;;;;20.26;44.93;95591.56;5957830;29;104371;-69
2022/11/08 09:45:00;;;;;;;15.33;14.13;;;;;;;20.26;45.39;95588.91;5960022;29;103927;-69
2022/11/08 09:48:07;;;;;;;14.83;13.63;;;;;;;20.26;45.10;95582.81;5966931;29;103535;-69
2022/11/08 09:51:14;;;;;;;14.30;13.10;;;;;;;20.26;44.97;95575.63;5966088;29;103748;-69
2022/11/08 09:54:22;;;;;;;14.63;13.50;;;;;;;20.27;44.89;95571.91;5956471;29;103996;-69
2022/11/08 09:57:30;;;;;;;14.63;13.43;;;;;;;20.27;45.10;95569.25;5967145;29;103912;-69
2022/11/08 10:00:37;;;;;;;15.30;14.00;;;;;;;20.31;45.05;95569.47;5965733;29;103684;-69
2022/11/08 10:03:48;;;;;;;13.50;12.40;;;;;;;20.29;45.14;95566.31;5962306;29;104468;-69
2022/11/08 10:07:17;;;;;;;14.20;13.10;;;;;;;20.32;45.19;95571.06;5963888;29;103708;-69
2022/11/08 10:10:57;;;;;;;14.00;12.90;;;;;;;20.31;44.80;95561.50;5966438;29;103673;-69
2022/11/08 10:14:18;;;;;;;14.70;13.53;;;;;;;20.33;44.97;95562.00;5945064;29;103970;-69
2022/11/08 10:17:52;;;;;;;13.60;12.50;;;;;;;20.34;45.03;95560.16;5959590;29;103512;-69
2022/11/08 10:21:05;;;;;;;14.23;13.00;;;;;;;20.36;44.80;95553.50;5970250;29;103747;-70
2022/11/08 10:24:18;;;;;;;14.80;13.40;;;;;;;20.36;44.84;95553.50;5970421;29;103899;-69
2022/11/08 10:27:31;;;;;;;14.13;13.03;;;;;;;20.37;44.80;95546.31;5959923;29;104318;-69
2022/11/08 10:30:38;;;;;;;13.57;12.40;;;;;;;20.38;44.80;95551.34;5970161;29;103842;-69
2022/11/08 10:33:48;;;;;;;14.10;13.00;;;;;;;20.40;44.65;95543.09;5970736;29;103593;-69
2022/11/08 10:36:58;;;;;;;13.70;12.60;;;;;;;20.41;44.70;95547.31;5970239;29;103862;-68
2022/11/08 10:40:22;;;;;;;13.30;12.30;;;;;;;20.42;44.75;95540.94;5959905;29;104078;-69
2022/11/08 10:43:32;;;;;;;13.60;12.50;;;;;;;20.43;44.78;95535.34;5970096;29;106729;-69
2022/11/08 10:46:43;;;;;;;13.97;12.57;;;;;;;20.43;44.65;95530.00;5969804;29;104423;-69
2022/11/08 10:49:46;;;;;;;13.23;12.13;;;;;;;20.45;44.90;95524.41;5959963;29;103981;-69
2022/11/08 10:52:58;;;;;;;14.40;13.20;;;;;;;20.45;44.91;95529.72;5969860;29;103510;-69
2022/11/08 10:56:04;;;;;;;12.57;11.57;;;;;;;20.47;44.64;95527.56;5970041;29;103745;-69
2022/11/08 10:59:29;;;;;;;13.23;12.13;;;;;;;20.46;44.67;95520.69;5969559;29;103742;-69
2022/11/08 11:02:34;;;;;;;13.70;12.60;;;;;;;20.46;44.56;95520.69;5959258;29;104089;-71
2022/11/08 11:05:41;;;;;;;13.37;12.27;;;;;;;20.48;44.58;95521.19;5969169;29;103732;-67
2022/11/08 11:08:49;;;;;;;14.80;13.60;;;;;;;20.49;44.98;95522.75;5970555;29;103855;-70
2022/11/08 11:11:59;;;;;;;13.80;12.70;;;;;;;20.50;44.60;95514.53;5963739;29;103786;-69
2022/11/08 11:15:04;;;;;;;14.43;13.23;;;;;;;20.53;44.80;95510.50;5970075;29;104810;-69
2022/11/08 11:18:24;;;;;;;12.60;11.60;;;;;;;20.53;44.80;95500.66;5969353;29;103881;-69
2022/11/08 11:21:36;;;;;;;13.53;12.43;;;;;;;20.55;44.85;95497.72;5969086;29;103771;-69
2022/11/08 11:24:47;;;;;;;14.10;12.93;;;;;;;20.56;44.55;95501.97;5960303;29;104044;-69
2022/11/08 11:27:55;;;;;;;13.67;12.60;;;;;;;20.56;44.75;95505.41;5967848;29;103852;-69
2022/11/08 11:31:01;;;;;;;12.60;11.50;;;;;;;20.57;44.50;95501.66;5969561;29;103859;-69
2022/11/08 11:34:27;;;;;;;12.97;11.90;;;;;;;20.56;44.57;95499.31;5965100;29;104117;-69
2022/11/08 11:37:39;;;;;;;13.10;12.00;;;;;;;20.57;44.59;95495.56;5964415;29;103698;-69
2022/11/08 11:40:45;;;;;;;13.20;12.10;;;;;;;20.57;44.95;95493.69;5969505;29;103824;-69
2022/11/08 11:44:03;;;;;;;13.20;12.20;;;;;;;20.57;44.62;95491.03;5968805;29;103897;-69
2022/11/08 11:47:15;;;;;;;12.30;11.30;;;;;;;20.57;44.58;95491.03;5958737;29;103228;-69
2022/11/08 11:50:29;;;;;;;13.57;12.47;;;;;;;20.58;44.49;95486.50;5967905;29;103539;-69
2022/11/08 11:53:35;;;;;;;13.30;12.10;;;;;;;20.57;44.45;95484.94;5968833;29;103865;-69
2022/11/08 11:56:48;;;;;;;12.97;11.97;;;;;;;20.57;44.72;95482.28;5966263;29;103893;-67
2022/11/08 12:00:07;;;;;;;13.27;12.20;;;;;;;20.55;44.60;95487.88;5963291;29;104628;-69
2022/11/08 12:03:39;;;;;;;12.70;11.70;;;;;;;20.56;44.40;95483.34;5968513;29;103811;-69
2022/11/08 12:06:50;;;;;;;12.27;11.37;;;;;;;20.57;44.42;95482.28;5968243;29;104309;-69
2022/11/08 12:10:07;;;;;;;14.13;13.00;;;;;;;20.56;44.57;95478.03;5958641;29;103717;-69
2022/11/08 12:13:18;;;;;;;13.33;12.27;;;;;;;20.56;44.59;95478.81;5968238;29;104098;-69
2022/11/08 12:16:28;;;;;;;11.67;10.67;;;;;;;20.55;44.68;95482.56;5968494;29;104298;-68
2022/11/08 12:19:45;;;;;;;12.43;11.43;;;;;;;20.55;44.60;95476.44;5963415;29;103669;-69
2022/11/08 12:23:11;;;;;;;12.17;11.20;;;;;;;20.54;44.57;95473.00;5962465;29;103542;-69
2022/11/08 12:26:22;;;;;;;13.10;11.90;;;;;;;20.54;44.38;95462.38;5967338;29;104290;-70
2022/11/08 12:29:27;;;;;;;11.60;10.70;;;;;;;20.54;44.85;95459.72;5967973;29;103795;-69
2022/11/08 12:32:57;;;;;;;12.87;11.77;;;;;;;20.54;44.75;95465.03;5957725;29;104071;-69
2022/11/08 12:36:12;;;;;;;12.83;11.83;;;;;;;20.54;44.61;95464.22;5967860;29;104243;-69
2022/11/08 12:39:26;;;;;;;11.73;10.83;;;;;;;20.54;44.83;95456.25;5968537;29;107727;-68
2022/11/08 12:42:56;;;;;;;11.30;10.40;;;;;;;20.53;44.63;95460.00;5962576;29;104549;-68
2022/11/08 12:46:11;;;;;;;12.53;11.53;;;;;;;20.53;44.59;95465.31;5967676;29;104475;-68
2022/11/08 12:49:36;;;;;;;11.87;10.97;;;;;;;20.52;44.87;95459.22;5967832;29;103473;-69
2022/11/08 12:52:56;;;;;;;11.13;10.23;;;;;;;20.52;44.70;95461.06;5967946;29;103753;-68
2022/11/08 12:56:02;;;;;;;11.97;10.97;;;;;;;20.51;44.69;95462.16;5957115;29;104155;-68
2022/11/08 12:59:17;;;;;;;11.90;11.00;;;;;;;20.49;44.74;95457.09;5967565;29;103827;-68
2022/11/08 13:02:24;;;;;;;11.97;10.97;;;;;;;20.51;45.01;95454.19;5967671;29;103374;-68
2022/11/08 13:05:33;;;;;;;12.77;11.77;;;;;;;20.49;45.03;95458.97;5960136;29;103944;-68
2022/11/08 13:08:50;;;;;;;11.60;10.70;;;;;;;20.48;45.25;95460.81;5967039;29;103805;-69
2022/11/08 13:12:02;;;;;;;11.43;10.43;;;;;;;20.47;44.86;95456.59;5968122;29;106315;-69
2022/11/08 13:15:15;;;;;;;11.80;10.80;;;;;;;20.47;45.20;95453.13;5967622;29;105998;-68
2022/11/08 13:18:33;;;;;;;11.60;10.70;;;;;;;20.54;45.11;95459.72;5956990;29;104019;-67
2022/11/08 13:21:40;;;;;;;11.00;10.20;;;;;;;20.58;45.09;95459.94;5967142;29;103855;-69
2022/11/08 13:24:43;;;;;;;11.03;10.13;;;;;;;20.56;45.04;95462.09;5966564;29;103755;-69
2022/11/08 13:27:48;;;;;;;12.13;11.10;;;;;;;20.54;44.97;95464.22;5960975;29;103682;-69
2022/11/08 13:30:59;;;;;;;11.93;10.97;;;;;;;20.52;45.08;95461.06;5961290;29;103931;-69
2022/11/08 13:34:43;;;;;;;11.17;10.37;;;;;;;20.49;45.15;95458.97;5966498;29;104274;-69
2022/11/08 13:38:00;;;;;;;11.63;10.63;;;;;;;20.49;44.99;95467.72;5917359;29;103834;-69
2022/11/08 13:41:19;;;;;;;11.73;10.80;;;;;;;20.47;44.92;95463.78;5910375;29;104140;-69
2022/11/08 13:44:57;;;;;;;11.07;10.27;;;;;;;20.46;45.06;95470.16;5966393;29;104016;-69
2022/11/08 13:48:02;;;;;;;11.43;10.43;;;;;;;20.46;45.04;95464.84;5966214;29;103794;-68
2022/11/08 13:51:29;;;;;;;10.60;9.80;;;;;;;20.46;45.24;95467.50;5956535;29;103681;-68
2022/11/08 13:54:54;;;;;;;11.70;10.80;;;;;;;20.45;44.97;95471.25;5967234;29;104206;-70
2022/11/08 13:58:00;;;;;;;11.33;10.33;;;;;;;20.45;45.11;95472.03;5967182;29;103373;-69
2022/11/08 14:01:06;;;;;;;11.53;10.43;;;;;;;20.43;45.14;95471.53;5965904;29;103826;-69
2022/11/08 14:04:24;;;;;;;10.90;9.97;;;;;;;20.43;45.11;95470.75;5955582;29;104346;-69
2022/11/08 14:07:33;;;;;;;11.70;10.70;;;;;;;20.42;44.97;95455.88;5966368;29;103951;-69
2022/11/08 14:11:03;;;;;;;11.47;10.47;;;;;;;20.43;45.03;95457.44;5966349;29;103611;-69
2022/11/08 14:14:47;;;;;;;11.90;10.90;;;;;;;20.39;45.15;95464.41;5944835;29;104328;-69
2022/11/08 14:17:55;;;;;;;10.73;9.87;;;;;;;20.39;45.05;95461.75;5966104;29;103778;-71
2022/11/08 14:20:59;;;;;;;10.77;9.87;;;;;;;20.39;45.02;95462.56;5966570;29;103985;-69
2022/11/08 14:24:03;;;;;;;11.27;10.37;;;;;;;20.38;45.28;95460.97;5966747;29;104095;-69
2022/11/08 14:27:11;;;;;;;11.30;10.30;;;;;;;20.35;45.25;95460.75;5954833;29;103711;-68
2022/11/08 14:30:17;;;;;;;11.20;10.20;;;;;;;20.38;45.33;95466.28;5966386;29;103783;-69
2022/11/08 14:33:23;;;;;;;10.47;9.67;;;;;;;20.36;45.01;95465.78;5965245;29;103796;-69
2022/11/08 14:36:28;;;;;;;10.73;9.83;;;;;;;20.36;45.31;95468.44;5957376;29;106662;-69
2022/11/08 14:39:33;;;;;;;10.77;9.93;;;;;;;20.37;45.19;95469.22;5965273;29;104345;-69